Time;durP1;ratioP1;P1;durP2;ratioP2;P2;SDS_P1;SDS_P2;PMS_P1;PMS_P2;Temp;Humidity;BMP_temperature;BMP_pressure;BME280_temperature;BME280_humidity;BME280_pressure;Samples;Min_cycle;Max_cycle;Signal;HPM_P1;HPM_P2
2022/12/02 00:00:45;;;;;;;;;;;;;;;;;;1724937;28;10055615;-93
2022/12/02 00:01:46;;;;;;;;;;;;;;;;;;2081058;28;19924;-93
2022/12/02 00:02:47;;;;;;;;;;;;;;;;;;2082547;28;19913;-93
2022/12/02 00:03:47;;;;;;;;;;;;;;;;;;2077813;28;20307;-93
2022/12/02 00:04:51;;;;;;;;;;;;;;;;;;2090977;28;19909;-92
2022/12/02 00:05:54;;;;;;;;;;;;;;;;;;2096817;28;19927;-92
2022/12/02 00:06:56;;;;;;;;;;;;;;;;;;2083062;28;19921;-93
2022/12/02 00:08:12;;;;;;;;;;;;;;;;;;2073754;28;19913;-93
2022/12/02 00:09:21;;;;;;;;;;;;;;;;;;2083418;28;20376;-93
2022/12/02 00:10:21;;;;;;;;;;;;;;;;;;2080701;28;19983;-93
2022/12/02 00:11:26;;;;;;;;;;;;;;;;;;2081055;28;19917;-92
2022/12/02 00:12:27;;;;;;;;;;;;;;;;;;2080538;28;19913;-91
2022/12/02 00:13:36;;;;;;;;;;;;;;;;;;2080748;28;20344;-93
2022/12/02 00:14:37;;;;;;;;;;;;;;;;;;2080880;28;19913;-93
2022/12/02 00:15:42;;;;;;;;;;;;;;;;;;2080794;28;19961;-94
2022/12/02 00:16:42;;;;;;;;;;;;;;;;;;2080966;28;19914;-94
2022/12/02 00:17:42;;;;;;;;;;;;;;;;;;2073215;28;19917;-94
2022/12/02 00:18:43;;;;;;;;;;;;;;;;;;2080997;28;19920;-94
2022/12/02 00:19:43;;;;;;;;;;;;;;;;;;2089231;28;19913;-93
2022/12/02 00:20:44;;;;;;;;;;;;;;;;;;2081054;28;20380;-93
2022/12/02 00:21:45;;;;;;;;;;;;;;;;;;2072647;28;19920;-93
2022/12/02 00:22:45;;;;;;;;;;;;;;;;;;2080866;28;19913;-94
2022/12/02 00:23:46;;;;;;;;;;;;;;;;;;2080973;28;19913;-92
2022/12/02 00:24:47;;;;;;;;;;;;;;;;;;2080603;28;19932;-93
2022/12/02 00:25:55;;;;;;;;;;;;;;;;;;1997741;28;10169711;-93
2022/12/02 00:26:55;;;;;;;;;;;;;;;;;;2081936;28;20000;-93
2022/12/02 00:27:55;;;;;;;;;;;;;;;;;;2080607;28;20046;-93
2022/12/02 00:28:56;;;;;;;;;;;;;;;;;;2080681;28;19925;-93
2022/12/02 00:29:56;;;;;;;;;;;;;;;;;;2080818;28;19913;-93
2022/12/02 00:30:56;;;;;;;;;;;;;;;;;;2089079;28;19913;-92
2022/12/02 00:31:56;;;;;;;;;;;;;;;;;;2088694;28;19936;-93
2022/12/02 00:32:57;;;;;;;;;;;;;;;;;;2088586;28;19912;-93
2022/12/02 00:33:59;;;;;;;;;;;;;;;;;;2080849;28;19913;-93
2022/12/02 00:34:59;;;;;;;;;;;;;;;;;;2080589;28;19920;-93
2022/12/02 00:35:59;;;;;;;;;;;;;;;;;;2080624;28;19944;-93
2022/12/02 00:37:00;;;;;;;;;;;;;;;;;;2080564;28;20327;-93
2022/12/02 00:38:00;;;;;;;;;;;;;;;;;;2081165;28;19964;-93
2022/12/02 00:39:01;;;;;;;;;;;;;;;;;;2080376;28;19914;-92
2022/12/02 00:40:07;;;;;;;;;;;;;;;;;;1897681;28;10349395;-93
2022/12/02 00:41:07;;;;;;;;;;;;;;;;;;2088737;28;20007;-91
2022/12/02 00:42:07;;;;;;;;;;;;;;;;;;2080268;28;19913;-93
2022/12/02 00:47:04;;;;;;;;;;;;;;;;;;2081409;28;19917;-92
2022/12/02 00:48:04;;;;;;;;;;;;;;;;;;2080274;28;19949;-91
2022/12/02 00:49:06;;;;;;;;;;;;;;;;;;2080387;28;19913;-92
2022/12/02 00:50:06;;;;;;;;;;;;;;;;;;2080343;28;19936;-93
2022/12/02 00:51:07;;;;;;;;;;;;;;;;;;2080683;28;19913;-92
2022/12/02 00:52:07;;;;;;;;;;;;;;;;;;2088875;28;19912;-92
2022/12/02 00:53:07;;;;;;;;;;;;;;;;;;2080470;28;19996;-93
2022/12/02 00:54:08;;;;;;;;;;;;;;;;;;2072690;28;20458;-94
2022/12/02 00:55:09;;;;;;;;;;;;;;;;;;2080984;28;19914;-94
2022/12/02 00:56:09;;;;;;;;;;;;;;;;;;2088868;28;19912;-94
2022/12/02 00:57:09;;;;;;;;;;;;;;;;;;2088968;28;19936;-94
2022/12/02 00:58:09;;;;;;;;;;;;;;;;;;2089069;28;19923;-93
2022/12/02 00:59:10;;;;;;;;;;;;;;;;;;2088826;28;20296;-93
2022/12/02 01:00:10;;;;;;;;;;;;;;;;;;2088662;28;19916;-94
2022/12/02 01:01:11;;;;;;;;;;;;;;;;;;2080767;28;19947;-93
2022/12/02 01:02:11;;;;;;;;;;;;;;;;;;2072648;28;19968;-93
2022/12/02 01:03:12;;;;;;;;;;;;;;;;;;2080767;28;19975;-93
2022/12/02 01:04:12;;;;;;;;;;;;;;;;;;2089027;28;20390;-94
2022/12/02 01:05:12;;;;;;;;;;;;;;;;;;2080634;28;20400;-93
2022/12/02 01:06:13;;;;;;;;;;;;;;;;;;2089577;28;20019;-92
2022/12/02 01:07:14;;;;;;;;;;;;;;;;;;2082110;28;19924;-93
2022/12/02 01:08:14;;;;;;;;;;;;;;;;;;2073932;28;20522;-93
2022/12/02 01:09:14;;;;;;;;;;;;;;;;;;2081879;28;19996;-94
2022/12/02 01:10:14;;;;;;;;;;;;;;;;;;2090373;28;19935;-92
2022/12/02 01:11:15;;;;;;;;;;;;;;;;;;2082132;28;20436;-93
2022/12/02 01:12:16;;;;;;;;;;;;;;;;;;2082715;28;19920;-93
2022/12/02 01:13:16;;;;;;;;;;;;;;;;;;2082024;28;19913;-91
2022/12/02 01:14:16;;;;;;;;;;;;;;;;;;2081824;28;20311;-94
2022/12/02 01:15:17;;;;;;;;;;;;;;;;;;2090074;28;19913;-94
2022/12/02 01:16:17;;;;;;;;;;;;;;;;;;2081987;28;19963;-94
2022/12/02 01:17:20;;;;;;;;;;;;;;;;;;2082034;28;19953;-94
2022/12/02 01:18:20;;;;;;;;;;;;;;;;;;2090414;28;19913;-93
2022/12/02 01:19:20;;;;;;;;;;;;;;;;;;2090442;28;20048;-93
2022/12/02 01:20:21;;;;;;;;;;;;;;;;;;2091342;28;19967;-92
2022/12/02 01:21:22;;;;;;;;;;;;;;;;;;2086123;28;20455;-94
2022/12/02 01:22:22;;;;;;;;;;;;;;;;;;2086313;28;19924;-94
2022/12/02 01:23:23;;;;;;;;;;;;;;;;;;2090388;28;19916;-93
2022/12/02 01:24:23;;;;;;;;;;;;;;;;;;2082329;28;19968;-95
2022/12/02 01:25:24;;;;;;;;;;;;;;;;;;2074271;28;20389;-94
2022/12/02 01:26:24;;;;;;;;;;;;;;;;;;2082260;28;20058;-94
2022/12/02 01:27:24;;;;;;;;;;;;;;;;;;2090224;28;20331;-93
2022/12/02 01:28:25;;;;;;;;;;;;;;;;;;2081820;28;19913;-94
2022/12/02 01:29:25;;;;;;;;;;;;;;;;;;2082037;28;19913;-93
2022/12/02 01:30:25;;;;;;;;;;;;;;;;;;2081713;28;20289;-92
2022/12/02 01:31:26;;;;;;;;;;;;;;;;;;2061015;28;19918;-93
2022/12/02 01:32:26;;;;;;;;;;;;;;;;;;2089974;28;19917;-92
2022/12/02 01:33:27;;;;;;;;;;;;;;;;;;2089897;28;19917;-92
2022/12/02 01:34:27;;;;;;;;;;;;;;;;;;2081481;28;19913;-92
2022/12/02 01:35:27;;;;;;;;;;;;;;;;;;2081381;28;19960;-91
2022/12/02 01:36:28;;;;;;;;;;;;;;;;;;2081488;28;19913;-92
2022/12/02 01:37:28;;;;;;;;;;;;;;;;;;2081447;28;19980;-93
2022/12/02 01:38:28;;;;;;;;;;;;;;;;;;2081514;28;19913;-91
2022/12/02 01:39:28;;;;;;;;;;;;;;;;;;2089862;28;19913;-93
2022/12/02 01:40:30;;;;;;;;;;;;;;;;;;2081735;28;20022;-93
2022/12/02 01:41:30;;;;;;;;;;;;;;;;;;2081778;28;20014;-92
2022/12/02 01:42:30;;;;;;;;;;;;;;;;;;2082622;28;20328;-91
2022/12/02 01:43:31;;;;;;;;;;;;;;;;;;2085340;28;19913;-91
2022/12/02 01:44:31;;;;;;;;;;;;;;;;;;2091665;28;19920;-91
2022/12/02 01:45:31;;;;;;;;;;;;;;;;;;2083348;28;19913;-92
2022/12/02 01:46:32;;;;;;;;;;;;;;;;;;2083136;28;19983;-92
2022/12/02 01:47:34;;;;;;;;;;;;;;;;;;2091067;28;20380;-92
2022/12/02 01:48:35;;;;;;;;;;;;;;;;;;2082635;28;19963;-92
2022/12/02 01:49:35;;;;;;;;;;;;;;;;;;2082220;28;20222;-93
2022/12/02 01:50:36;;;;;;;;;;;;;;;;;;2081472;28;19921;-91
2022/12/02 01:51:36;;;;;;;;;;;;;;;;;;2073240;28;19920;-93
2022/12/02 01:52:37;;;;;;;;;;;;;;;;;;2080892;28;20066;-91
2022/12/02 01:53:38;;;;;;;;;;;;;;;;;;1726564;28;10402087;-92
2022/12/02 01:54:38;;;;;;;;;;;;;;;;;;2081086;28;19921;-93
2022/12/02 01:55:38;;;;;;;;;;;;;;;;;;2081100;28;19913;-92
2022/12/02 01:56:39;;;;;;;;;;;;;;;;;;2081571;28;19929;-92
2022/12/02 01:57:39;;;;;;;;;;;;;;;;;;2081023;28;20474;-91
2022/12/02 01:58:40;;;;;;;;;;;;;;;;;;2081069;28;20327;-92
2022/12/02 01:59:40;;;;;;;;;;;;;;;;;;2089331;28;19935;-91
2022/12/02 02:00:41;;;;;;;;;;;;;;;;;;2080878;28;19921;-93
2022/12/02 02:01:41;;;;;;;;;;;;;;;;;;2080842;28;19964;-93
2022/12/02 02:02:43;;;;;;;;;;;;;;;;;;2081011;28;19917;-93
2022/12/02 02:03:43;;;;;;;;;;;;;;;;;;2081045;28;19940;-92
2022/12/02 02:04:43;;;;;;;;;;;;;;;;;;2081727;28;19913;-91
2022/12/02 02:05:45;;;;;;;;;;;;;;;;;;2081735;28;19943;-92
2022/12/02 02:06:46;;;;;;;;;;;;;;;;;;2080911;28;19917;-92
2022/12/02 02:07:48;;;;;;;;;;;;;;;;;;2080942;28;19924;-92
2022/12/02 02:08:48;;;;;;;;;;;;;;;;;;2089339;28;19912;-92
2022/12/02 02:09:49;;;;;;;;;;;;;;;;;;2080901;28;19913;-92
2022/12/02 02:10:49;;;;;;;;;;;;;;;;;;2080933;28;19952;-92
2022/12/02 02:11:49;;;;;;;;;;;;;;;;;;2089114;28;19913;-92
2022/12/02 02:12:50;;;;;;;;;;;;;;;;;;2080965;28;19963;-92
2022/12/02 02:13:51;;;;;;;;;;;;;;;;;;2062302;28;19977;-92
2022/12/02 02:14:51;;;;;;;;;;;;;;;;;;2072552;28;19914;-92
2022/12/02 02:15:52;;;;;;;;;;;;;;;;;;2072637;28;19987;-93
2022/12/02 02:16:52;;;;;;;;;;;;;;;;;;2080869;28;19923;-91
2022/12/02 02:17:54;;;;;;;;;;;;;;;;;;2088422;28;19924;-91
2022/12/02 02:18:54;;;;;;;;;;;;;;;;;;2089016;28;19913;-91
2022/12/02 02:19:55;;;;;;;;;;;;;;;;;;2080650;28;19917;-91
2022/12/02 02:20:57;;;;;;;;;;;;;;;;;;2080796;28;19971;-92
2022/12/02 02:21:58;;;;;;;;;;;;;;;;;;2088411;28;19905;-91
2022/12/02 02:23:04;;;;;;;;;;;;;;;;;;2091693;28;19929;-91
2022/12/02 02:24:05;;;;;;;;;;;;;;;;;;2098971;28;19924;-91
2022/12/02 02:25:09;;;;;;;;;;;;;;;;;;2085466;28;20380;-91
2022/12/02 02:26:09;;;;;;;;;;;;;;;;;;2083603;28;19971;-93
2022/12/02 02:27:10;;;;;;;;;;;;;;;;;;2082265;28;19917;-93
2022/12/02 02:28:10;;;;;;;;;;;;;;;;;;2081476;28;19921;-92
2022/12/02 02:29:11;;;;;;;;;;;;;;;;;;2081318;28;19920;-91
2022/12/02 02:30:11;;;;;;;;;;;;;;;;;;2081390;28;20332;-92
2022/12/02 02:31:12;;;;;;;;;;;;;;;;;;2089637;28;19986;-92
2022/12/02 02:32:12;;;;;;;;;;;;;;;;;;2081324;28;19917;-92
2022/12/02 02:34:50;;;;;;;;;;;;;;;;;;2244353;22;19968;-89
2022/12/02 02:35:51;;;;;;;;;;;;;;;;;;2089197;28;20396;-90
2022/12/02 02:36:51;;;;;;;;;;;;;;;;;;2088467;28;20315;-89
2022/12/02 02:37:53;;;;;;;;;;;;;;;;;;2088414;28;19913;-90
2022/12/02 02:38:54;;;;;;;;;;;;;;;;;;2088719;28;19913;-90
2022/12/02 02:39:54;;;;;;;;;;;;;;;;;;2088686;28;19959;-90
2022/12/02 02:40:55;;;;;;;;;;;;;;;;;;2088618;28;20062;-89
2022/12/02 02:41:56;;;;;;;;;;;;;;;;;;2098551;28;19917;-90
2022/12/02 02:42:59;;;;;;;;;;;;;;;;;;2099450;28;19916;-90
2022/12/02 02:43:59;;;;;;;;;;;;;;;;;;2099435;28;19924;-90
2022/12/02 02:45:00;;;;;;;;;;;;;;;;;;2092834;28;19921;-89
2022/12/02 02:46:00;;;;;;;;;;;;;;;;;;2090615;28;19923;-90
2022/12/02 02:47:07;;;;;;;;;;;;;;;;;;1962267;28;10000181;-90
2022/12/02 02:48:08;;;;;;;;;;;;;;;;;;2088814;28;20006;-89
2022/12/02 02:49:09;;;;;;;;;;;;;;;;;;2089098;28;20280;-88
2022/12/02 02:50:09;;;;;;;;;;;;;;;;;;2089214;28;19920;-89
2022/12/02 02:51:11;;;;;;;;;;;;;;;;;;2088526;28;20016;-89
2022/12/02 02:52:11;;;;;;;;;;;;;;;;;;2088653;28;19919;-90
2022/12/02 02:53:12;;;;;;;;;;;;;;;;;;2088425;28;19920;-89
2022/12/02 02:54:13;;;;;;;;;;;;;;;;;;2088813;28;19924;-90
2022/12/02 02:55:16;;;;;;;;;;;;;;;;;;2088377;28;19913;-90
2022/12/02 02:56:17;;;;;;;;;;;;;;;;;;2088682;28;19913;-89
2022/12/02 02:57:17;;;;;;;;;;;;;;;;;;2088366;28;19921;-92
2022/12/02 02:58:19;;;;;;;;;;;;;;;;;;2088791;28;19920;-92
2022/12/02 02:59:19;;;;;;;;;;;;;;;;;;2088782;28;19967;-90
2022/12/02 03:00:21;;;;;;;;;;;;;;;;;;2089303;28;20019;-90
2022/12/02 03:01:24;;;;;;;;;;;;;;;;;;2088481;28;20326;-89
2022/12/02 03:02:25;;;;;;;;;;;;;;;;;;2088456;28;19920;-89
2022/12/02 03:03:27;;;;;;;;;;;;;;;;;;2088515;28;19940;-89
2022/12/02 03:04:28;;;;;;;;;;;;;;;;;;2088558;28;19921;-91
2022/12/02 03:05:28;;;;;;;;;;;;;;;;;;2088548;28;20367;-90
2022/12/02 03:06:30;;;;;;;;;;;;;;;;;;2088430;28;20131;-91
2022/12/02 03:07:30;;;;;;;;;;;;;;;;;;2088226;28;20386;-91
2022/12/02 03:08:31;;;;;;;;;;;;;;;;;;2088377;28;19924;-90
2022/12/02 03:09:32;;;;;;;;;;;;;;;;;;2088427;28;19912;-91
2022/12/02 03:10:32;;;;;;;;;;;;;;;;;;2088818;28;19935;-90
2022/12/02 03:11:33;;;;;;;;;;;;;;;;;;2092094;28;20382;-89
2022/12/02 03:12:33;;;;;;;;;;;;;;;;;;2092446;28;19917;-90
2022/12/02 03:13:35;;;;;;;;;;;;;;;;;;2089175;28;19952;-90
2022/12/02 03:14:36;;;;;;;;;;;;;;;;;;2088543;28;20350;-92
2022/12/02 03:15:37;;;;;;;;;;;;;;;;;;2096605;28;20274;-90
2022/12/02 03:16:41;;;;;;;;;;;;;;;;;;2089599;28;20411;-91
2022/12/02 03:17:41;;;;;;;;;;;;;;;;;;2089544;28;19964;-94
2022/12/02 03:18:42;;;;;;;;;;;;;;;;;;2089885;28;20386;-93
2022/12/02 03:19:43;;;;;;;;;;;;;;;;;;2089627;28;19913;-93
2022/12/02 03:20:43;;;;;;;;;;;;;;;;;;2089331;28;19919;-93
2022/12/02 03:21:44;;;;;;;;;;;;;;;;;;2088994;28;19913;-93
2022/12/02 03:22:44;;;;;;;;;;;;;;;;;;2089952;28;19913;-94
2022/12/02 03:23:48;;;;;;;;;;;;;;;;;;2089388;28;19913;-93
2022/12/02 03:24:49;;;;;;;;;;;;;;;;;;2089732;28;20003;-93
2022/12/02 03:25:49;;;;;;;;;;;;;;;;;;2089496;28;19912;-94
2022/12/02 03:26:50;;;;;;;;;;;;;;;;;;2081320;28;20398;-94
2022/12/02 03:27:50;;;;;;;;;;;;;;;;;;2081177;28;20412;-93
2022/12/02 03:28:52;;;;;;;;;;;;;;;;;;2081214;28;20003;-95
2022/12/02 03:29:52;;;;;;;;;;;;;;;;;;2088825;28;19913;-94
2022/12/02 03:30:53;;;;;;;;;;;;;;;;;;2089463;28;19947;-94
2022/12/02 03:31:54;;;;;;;;;;;;;;;;;;2089294;28;19913;-94
2022/12/02 03:32:54;;;;;;;;;;;;;;;;;;2089140;28;20343;-93
2022/12/02 03:33:55;;;;;;;;;;;;;;;;;;2089614;28;19913;-92
2022/12/02 03:34:56;;;;;;;;;;;;;;;;;;2089210;28;19921;-92
2022/12/02 03:35:57;;;;;;;;;;;;;;;;;;2097882;28;19918;-93
2022/12/02 03:36:57;;;;;;;;;;;;;;;;;;2090557;28;20252;-95
2022/12/02 03:38:01;;;;;;;;;;;;;;;;;;2081487;28;20312;-94
2022/12/02 03:39:02;;;;;;;;;;;;;;;;;;2089362;28;19916;-91
2022/12/02 03:40:03;;;;;;;;;;;;;;;;;;2088994;28;20362;-93
2022/12/02 03:41:04;;;;;;;;;;;;;;;;;;2089406;28;20007;-92
2022/12/02 03:42:04;;;;;;;;;;;;;;;;;;2089321;28;19912;-93
2022/12/02 03:43:04;;;;;;;;;;;;;;;;;;2089220;28;20380;-93
2022/12/02 03:44:05;;;;;;;;;;;;;;;;;;2089133;28;20387;-92
2022/12/02 03:45:07;;;;;;;;;;;;;;;;;;1725205;28;10249342;-94
2022/12/02 03:46:08;;;;;;;;;;;;;;;;;;2080961;28;20303;-92
2022/12/02 03:47:08;;;;;;;;;;;;;;;;;;2081006;28;19913;-94
2022/12/02 03:48:09;;;;;;;;;;;;;;;;;;2081332;28;20321;-92
2022/12/02 03:49:10;;;;;;;;;;;;;;;;;;2089111;28;19974;-92
2022/12/02 03:50:11;;;;;;;;;;;;;;;;;;2089275;28;19918;-92
2022/12/02 03:51:12;;;;;;;;;;;;;;;;;;2089359;28;20314;-92
2022/12/02 03:52:12;;;;;;;;;;;;;;;;;;2089305;28;19912;-91
2022/12/02 03:53:13;;;;;;;;;;;;;;;;;;2089296;28;19921;-94
2022/12/02 03:54:14;;;;;;;;;;;;;;;;;;2089182;28;20008;-93
2022/12/02 03:55:14;;;;;;;;;;;;;;;;;;2088996;28;20438;-93
2022/12/02 03:56:14;;;;;;;;;;;;;;;;;;2080647;28;19960;-91
2022/12/02 03:57:15;;;;;;;;;;;;;;;;;;2089008;28;19913;-94
2022/12/02 03:58:15;;;;;;;;;;;;;;;;;;2089025;28;19913;-92
2022/12/02 03:59:20;;;;;;;;;;;;;;;;;;2080825;28;19922;-92
2022/12/02 04:00:21;;;;;;;;;;;;;;;;;;2089340;28;20346;-94
2022/12/02 04:01:25;;;;;;;;;;;;;;;;;;2088897;28;19917;-92
2022/12/02 04:02:25;;;;;;;;;;;;;;;;;;2089109;28;19913;-93
2022/12/02 04:03:26;;;;;;;;;;;;;;;;;;2088821;28;20435;-93
2022/12/02 04:04:26;;;;;;;;;;;;;;;;;;2080641;28;19913;-93
2022/12/02 04:05:26;;;;;;;;;;;;;;;;;;2088859;28;20329;-94
2022/12/02 04:06:26;;;;;;;;;;;;;;;;;;2088876;28;20032;-94
2022/12/02 04:07:27;;;;;;;;;;;;;;;;;;2080788;28;19913;-93
2022/12/02 04:08:27;;;;;;;;;;;;;;;;;;2088632;28;20297;-92
2022/12/02 04:09:28;;;;;;;;;;;;;;;;;;2088404;28;20434;-93
2022/12/02 04:10:28;;;;;;;;;;;;;;;;;;2080519;28;19914;-92
2022/12/02 04:11:28;;;;;;;;;;;;;;;;;;2089643;28;20006;-92
2022/12/02 04:12:29;;;;;;;;;;;;;;;;;;2090116;28;19912;-91
2022/12/02 04:13:29;;;;;;;;;;;;;;;;;;2082334;28;19913;-93
2022/12/02 04:14:29;;;;;;;;;;;;;;;;;;2095982;28;19912;-90
2022/12/02 04:15:32;;;;;;;;;;;;;;;;;;2097540;28;19917;-90
2022/12/02 04:16:32;;;;;;;;;;;;;;;;;;2093674;28;19940;-89
2022/12/02 04:17:33;;;;;;;;;;;;;;;;;;2091981;28;20383;-91
2022/12/02 04:18:33;;;;;;;;;;;;;;;;;;2088194;28;19965;-91
2022/12/02 04:19:34;;;;;;;;;;;;;;;;;;2088377;28;19974;-91
2022/12/02 04:20:34;;;;;;;;;;;;;;;;;;2088241;28;19913;-91
2022/12/02 04:21:34;;;;;;;;;;;;;;;;;;2080120;28;19913;-91
2022/12/02 04:22:35;;;;;;;;;;;;;;;;;;2087996;28;19913;-91
2022/12/02 04:23:35;;;;;;;;;;;;;;;;;;2088171;28;19916;-91
2022/12/02 04:24:35;;;;;;;;;;;;;;;;;;2088036;28;19917;-91
2022/12/02 04:25:36;;;;;;;;;;;;;;;;;;2088160;28;20023;-91
2022/12/02 04:26:36;;;;;;;;;;;;;;;;;;2088047;28;19944;-91
2022/12/02 04:27:36;;;;;;;;;;;;;;;;;;2088336;28;19920;-91
2022/12/02 04:28:37;;;;;;;;;;;;;;;;;;2088242;28;19912;-91
2022/12/02 04:29:37;;;;;;;;;;;;;;;;;;2088073;28;19920;-91
2022/12/02 04:30:37;;;;;;;;;;;;;;;;;;2087899;28;19913;-91
2022/12/02 04:31:38;;;;;;;;;;;;;;;;;;2088320;28;19920;-91
2022/12/02 04:32:38;;;;;;;;;;;;;;;;;;2088073;28;19913;-92
2022/12/02 04:33:39;;;;;;;;;;;;;;;;;;2087831;28;20576;-89
2022/12/02 04:34:39;;;;;;;;;;;;;;;;;;2088124;28;20003;-89
2022/12/02 04:35:39;;;;;;;;;;;;;;;;;;2088652;28;20004;-90
2022/12/02 04:36:39;;;;;;;;;;;;;;;;;;2088057;28;19997;-90
2022/12/02 04:37:40;;;;;;;;;;;;;;;;;;2088007;28;20073;-90
2022/12/02 04:38:40;;;;;;;;;;;;;;;;;;2088380;28;19951;-90
2022/12/02 04:39:40;;;;;;;;;;;;;;;;;;2088068;28;19917;-90
2022/12/02 04:40:41;;;;;;;;;;;;;;;;;;2087920;28;19913;-89
2022/12/02 04:41:41;;;;;;;;;;;;;;;;;;2098044;28;20322;-90
2022/12/02 04:42:41;;;;;;;;;;;;;;;;;;2089662;28;19916;-90
2022/12/02 04:43:42;;;;;;;;;;;;;;;;;;2089535;28;19913;-90
2022/12/02 04:44:42;;;;;;;;;;;;;;;;;;2089466;28;19925;-90
2022/12/02 04:45:42;;;;;;;;;;;;;;;;;;2081433;28;19921;-89
2022/12/02 04:46:42;;;;;;;;;;;;;;;;;;2080995;28;19917;-91
2022/12/02 04:47:43;;;;;;;;;;;;;;;;;;2089743;28;19913;-91
2022/12/02 04:48:43;;;;;;;;;;;;;;;;;;2089286;28;19924;-91
2022/12/02 04:49:43;;;;;;;;;;;;;;;;;;2089591;28;19913;-91
2022/12/02 04:50:44;;;;;;;;;;;;;;;;;;2097757;28;20363;-91
2022/12/02 04:51:44;;;;;;;;;;;;;;;;;;2089490;28;20446;-91
2022/12/02 04:52:45;;;;;;;;;;;;;;;;;;2089297;28;19939;-90
2022/12/02 04:53:45;;;;;;;;;;;;;;;;;;2089748;28;19913;-91
2022/12/02 04:54:45;;;;;;;;;;;;;;;;;;2081250;28;20004;-90
2022/12/02 04:55:45;;;;;;;;;;;;;;;;;;2081161;28;20450;-91
2022/12/02 04:56:46;;;;;;;;;;;;;;;;;;2089611;28;19912;-90
2022/12/02 04:57:46;;;;;;;;;;;;;;;;;;2097699;28;19912;-90
2022/12/02 04:58:46;;;;;;;;;;;;;;;;;;2089462;28;20403;-91
2022/12/02 04:59:47;;;;;;;;;;;;;;;;;;2089716;28;19916;-91
2022/12/02 05:00:47;;;;;;;;;;;;;;;;;;2096303;28;19909;-90
2022/12/02 05:01:47;;;;;;;;;;;;;;;;;;2091825;28;19909;-90
2022/12/02 05:02:47;;;;;;;;;;;;;;;;;;2099826;28;19940;-90
2022/12/02 05:03:48;;;;;;;;;;;;;;;;;;2096630;28;19920;-91
2022/12/02 05:04:48;;;;;;;;;;;;;;;;;;2095858;28;19913;-91
2022/12/02 05:05:48;;;;;;;;;;;;;;;;;;2093178;28;20375;-91
2022/12/02 05:06:51;;;;;;;;;;;;;;;;;;2093576;28;19913;-91
2022/12/02 05:07:51;;;;;;;;;;;;;;;;;;2094352;28;19913;-91
2022/12/02 05:08:52;;;;;;;;;;;;;;;;;;2090140;28;20406;-92
2022/12/02 05:09:52;;;;;;;;;;;;;;;;;;2089211;28;19912;-91
2022/12/02 05:10:52;;;;;;;;;;;;;;;;;;2089704;28;19963;-90
2022/12/02 05:11:53;;;;;;;;;;;;;;;;;;2089209;28;20011;-91
2022/12/02 05:12:53;;;;;;;;;;;;;;;;;;2081034;28;19956;-91
2022/12/02 05:13:53;;;;;;;;;;;;;;;;;;2089246;28;20304;-91
2022/12/02 05:14:54;;;;;;;;;;;;;;;;;;2089361;28;19967;-91
2022/12/02 05:15:54;;;;;;;;;;;;;;;;;;2097813;28;19990;-91
2022/12/02 05:16:54;;;;;;;;;;;;;;;;;;2090300;28;19959;-91
2022/12/02 05:17:54;;;;;;;;;;;;;;;;;;2090478;28;19913;-92
2022/12/02 05:18:55;;;;;;;;;;;;;;;;;;2090575;28;20367;-91
2022/12/02 05:19:55;;;;;;;;;;;;;;;;;;2089565;28;19990;-93
2022/12/02 05:20:56;;;;;;;;;;;;;;;;;;2082559;28;19952;-91
2022/12/02 05:21:56;;;;;;;;;;;;;;;;;;2091175;28;20360;-91
2022/12/02 05:22:56;;;;;;;;;;;;;;;;;;2094619;28;19913;-90
2022/12/02 05:23:57;;;;;;;;;;;;;;;;;;2098301;28;19976;-91
2022/12/02 05:24:57;;;;;;;;;;;;;;;;;;2098894;28;19909;-91
2022/12/02 05:25:57;;;;;;;;;;;;;;;;;;2092596;28;20391;-90
2022/12/02 05:26:58;;;;;;;;;;;;;;;;;;2090174;28;19913;-90
2022/12/02 05:27:58;;;;;;;;;;;;;;;;;;2089366;28;19920;-90
2022/12/02 05:28:58;;;;;;;;;;;;;;;;;;2081307;28;19913;-89
2022/12/02 05:29:59;;;;;;;;;;;;;;;;;;2089200;28;19912;-90
2022/12/02 05:30:59;;;;;;;;;;;;;;;;;;2089137;28;20011;-92
2022/12/02 05:31:59;;;;;;;;;;;;;;;;;;2081115;28;19947;-92
2022/12/02 05:33:00;;;;;;;;;;;;;;;;;;2089121;28;20190;-90
2022/12/02 05:34:00;;;;;;;;;;;;;;;;;;2089086;28;19916;-91
2022/12/02 05:35:00;;;;;;;;;;;;;;;;;;1727111;28;10189804;-92
2022/12/02 05:36:01;;;;;;;;;;;;;;;;;;2089149;28;19917;-92
2022/12/02 05:37:02;;;;;;;;;;;;;;;;;;2080936;28;19924;-92
2022/12/02 05:38:02;;;;;;;;;;;;;;;;;;2080876;28;19920;-91
2022/12/02 05:39:02;;;;;;;;;;;;;;;;;;2080838;28;20430;-91
2022/12/02 05:40:03;;;;;;;;;;;;;;;;;;2089204;28;19912;-91
2022/12/02 05:41:03;;;;;;;;;;;;;;;;;;2089058;28;19955;-92
2022/12/02 05:42:10;;;;;;;;;;;;;;;;;;2088998;28;19913;-91
2022/12/02 05:43:14;;;;;;;;;;;;;;;;;;2089068;28;19948;-91
2022/12/02 05:44:14;;;;;;;;;;;;;;;;;;2089019;28;20003;-90
2022/12/02 05:45:19;;;;;;;;;;;;;;;;;;2089133;28;19912;-90
2022/12/02 05:46:20;;;;;;;;;;;;;;;;;;2089046;28;19917;-90
2022/12/02 05:47:21;;;;;;;;;;;;;;;;;;2080742;28;20079;-90
2022/12/02 05:48:21;;;;;;;;;;;;;;;;;;2089003;28;20438;-91
2022/12/02 05:49:22;;;;;;;;;;;;;;;;;;2088950;28;19933;-89
2022/12/02 05:50:23;;;;;;;;;;;;;;;;;;2088880;28;20240;-90
2022/12/02 05:51:24;;;;;;;;;;;;;;;;;;2089633;28;19948;-91
2022/12/02 05:52:26;;;;;;;;;;;;;;;;;;2088397;28;20023;-90
2022/12/02 05:53:27;;;;;;;;;;;;;;;;;;2088766;28;19932;-92
2022/12/02 05:54:27;;;;;;;;;;;;;;;;;;1738967;28;10040058;-92
2022/12/02 05:55:28;;;;;;;;;;;;;;;;;;2088748;28;19920;-91
2022/12/02 05:56:30;;;;;;;;;;;;;;;;;;2089305;28;19967;-90
2022/12/02 05:57:31;;;;;;;;;;;;;;;;;;2089125;28;19923;-91
2022/12/02 05:58:31;;;;;;;;;;;;;;;;;;2090157;28;20362;-91
2022/12/02 05:59:31;;;;;;;;;;;;;;;;;;2088845;28;19931;-91
2022/12/02 06:00:32;;;;;;;;;;;;;;;;;;2088925;28;19919;-90
2022/12/02 06:01:36;;;;;;;;;;;;;;;;;;2095618;28;20395;-90
2022/12/02 06:02:39;;;;;;;;;;;;;;;;;;2089276;28;20350;-90
2022/12/02 06:03:39;;;;;;;;;;;;;;;;;;2088915;28;19996;-90
2022/12/02 06:04:40;;;;;;;;;;;;;;;;;;2088869;28;20020;-90
2022/12/02 06:05:41;;;;;;;;;;;;;;;;;;2088733;28;20416;-89
2022/12/02 06:06:42;;;;;;;;;;;;;;;;;;2088769;28;19924;-89
2022/12/02 06:07:42;;;;;;;;;;;;;;;;;;2088892;28;20327;-89
2022/12/02 06:08:43;;;;;;;;;;;;;;;;;;2089389;28;19912;-90
2022/12/02 06:09:43;;;;;;;;;;;;;;;;;;2088572;28;19936;-90
2022/12/02 06:10:50;;;;;;;;;;;;;;;;;;2088596;28;20159;-89
2022/12/02 06:11:51;;;;;;;;;;;;;;;;;;2088689;28;20264;-89
2022/12/02 06:12:53;;;;;;;;;;;;;;;;;;2089477;28;20308;-90
2022/12/02 06:13:57;;;;;;;;;;;;;;;;;;2088536;28;19939;-90
2022/12/02 06:14:58;;;;;;;;;;;;;;;;;;2088471;28;19929;-90
2022/12/02 06:15:59;;;;;;;;;;;;;;;;;;2080328;28;19917;-90
2022/12/02 06:17:00;;;;;;;;;;;;;;;;;;2080486;28;20012;-90
2022/12/02 06:18:01;;;;;;;;;;;;;;;;;;2088675;28;20625;-90
2022/12/02 06:19:03;;;;;;;;;;;;;;;;;;2088486;28;20083;-91
2022/12/02 06:20:04;;;;;;;;;;;;;;;;;;2088983;28;19913;-90
2022/12/02 06:21:14;;;;;;;;;;;;;;;;;;2096767;28;20377;-90
2022/12/02 06:22:21;;;;;;;;;;;;;;;;;;2089558;28;19912;-90
2022/12/02 06:23:22;;;;;;;;;;;;;;;;;;2089479;28;20016;-89
2022/12/02 06:24:27;;;;;;;;;;;;;;;;;;2088719;28;19935;-91
2022/12/02 06:25:29;;;;;;;;;;;;;;;;;;2088839;28;19923;-90
2022/12/02 06:26:29;;;;;;;;;;;;;;;;;;2088853;28;19917;-92
2022/12/02 06:27:31;;;;;;;;;;;;;;;;;;2089078;28;20470;-94
2022/12/02 06:28:36;;;;;;;;;;;;;;;;;;2089369;28;19920;-91
2022/12/02 06:29:45;;;;;;;;;;;;;;;;;;2088921;28;19956;-90
2022/12/02 06:30:45;;;;;;;;;;;;;;;;;;2088952;28;20352;-90
2022/12/02 06:31:46;;;;;;;;;;;;;;;;;;2088722;28;19959;-91
2022/12/02 06:32:52;;;;;;;;;;;;;;;;;;2088432;28;19919;-88
2022/12/02 06:33:55;;;;;;;;;;;;;;;;;;2088682;28;19908;-90
2022/12/02 06:34:55;;;;;;;;;;;;;;;;;;2088384;28;20375;-90
2022/12/02 06:35:56;;;;;;;;;;;;;;;;;;2080353;28;19992;-90
2022/12/02 06:36:58;;;;;;;;;;;;;;;;;;2080313;28;19921;-90
2022/12/02 06:38:01;;;;;;;;;;;;;;;;;;2080353;28;19987;-89
2022/12/02 06:39:02;;;;;;;;;;;;;;;;;;2088364;28;20544;-89
2022/12/02 06:40:18;;;;;;;;;;;;;;;;;;2080208;28;19914;-89
2022/12/02 06:41:22;;;;;;;;;;;;;;;;;;2082072;28;20323;-89
2022/12/02 06:42:28;;;;;;;;;;;;;;;;;;2088642;28;20003;-89
2022/12/02 06:43:29;;;;;;;;;;;;;;;;;;2080737;28;20377;-90
2022/12/02 06:45:48;;;;;;;;;;;;;;;;;;2088883;28;19921;-90
2022/12/02 06:46:48;;;;;;;;;;;;;;;;;;2089198;28;19921;-90
2022/12/02 06:48:09;;;;;;;;;;;;;;;;;;2088480;28;19968;-90
2022/12/02 06:49:19;;;;;;;;;;;;;;;;;;2081258;28;20437;-90
2022/12/02 06:50:19;;;;;;;;;;;;;;;;;;2089413;28;19912;-89
2022/12/02 06:51:20;;;;;;;;;;;;;;;;;;2091034;28;20055;-90
2022/12/02 06:52:21;;;;;;;;;;;;;;;;;;2082390;28;19923;-90
2022/12/02 06:53:25;;;;;;;;;;;;;;;;;;2095513;28;20038;-89
2022/12/02 06:54:27;;;;;;;;;;;;;;;;;;2097863;28;19908;-88
2022/12/02 06:55:32;;;;;;;;;;;;;;;;;;2106419;28;19912;-89
2022/12/02 06:56:32;;;;;;;;;;;;;;;;;;2094858;28;20003;-90
2022/12/02 06:57:32;;;;;;;;;;;;;;;;;;2092289;28;19912;-92
2022/12/02 06:58:46;;;;;;;;;;;;;;;;;;2091668;28;19920;-91
2022/12/02 06:59:47;;;;;;;;;;;;;;;;;;2089053;28;20043;-90
2022/12/02 07:00:48;;;;;;;;;;;;;;;;;;2086560;28;19917;-91
2022/12/02 07:01:51;;;;;;;;;;;;;;;;;;2085267;28;19938;-90
2022/12/02 07:02:52;;;;;;;;;;;;;;;;;;2093300;28;19920;-90
2022/12/02 07:04:03;;;;;;;;;;;;;;;;;;2084989;28;19916;-91